createdAt,value
2017-03-30T00:00:08.513Z,21
2017-03-30T00:02:05.566Z,20.9
2017-03-30T00:04:05.219Z,21
2017-03-30T00:06:04.975Z,21
2017-03-30T00:08:05.850Z,20.9
2017-03-30T00:10:05.542Z,20.9
2017-03-30T00:12:04.750Z,21
2017-03-30T00:14:05.378Z,21
2017-03-30T00:16:05.415Z,21
2017-03-30T00:18:04.900Z,20.9
2017-03-30T00:20:05.460Z,20.9
2017-03-30T00:22:07.733Z,20.9
2017-03-30T00:24:05.490Z,20.9
2017-03-30T00:26:05.351Z,20.9
2017-03-30T00:28:04.630Z,20.9
2017-03-30T00:30:05.353Z,20.9
2017-03-30T00:32:10.844Z,20.9
2017-03-30T00:34:10.598Z,20.9
2017-03-30T00:36:04.792Z,20.9
2017-03-30T00:38:05.865Z,20.9
2017-03-30T00:40:05.574Z,20.9
2017-03-30T00:42:05.300Z,20.9
2017-03-30T00:44:10.225Z,20.9
2017-03-30T00:46:04.956Z,20.9
2017-03-30T00:48:05.398Z,20.9
2017-03-30T00:50:05.239Z,20.9
2017-03-30T00:52:04.911Z,20.9
2017-03-30T00:54:04.596Z,20.9
2017-03-30T00:56:15.728Z,20.9
2017-03-30T00:58:04.895Z,20.9
2017-03-30T01:00:05.548Z,20.9
2017-03-30T01:02:05.614Z,20.9
2017-03-30T01:04:05.729Z,20.9
2017-03-30T01:06:05.463Z,20.9
2017-03-30T01:08:05.055Z,20.9
2017-03-30T01:10:05.258Z,20.9
2017-03-30T01:12:05.536Z,20.9
2017-03-30T01:14:05.058Z,20.9
2017-03-30T01:16:04.714Z,20.9
2017-03-30T01:18:05.079Z,20.9
2017-03-30T01:20:05.667Z,20.9
2017-03-30T01:22:04.961Z,20.9
2017-03-30T01:24:05.234Z,20.9
2017-03-30T01:26:05.723Z,20.9
2017-03-30T01:28:05.382Z,20.9
2017-03-30T01:30:07.582Z,20.9
2017-03-30T01:32:05.647Z,20.9
2017-03-30T01:34:04.959Z,20.9
2017-03-30T01:36:07.411Z,20.9
2017-03-30T01:38:05.225Z,20.9
2017-03-30T01:40:12.485Z,20.9
2017-03-30T01:42:05.185Z,20.9
2017-03-30T01:44:05.356Z,20.9
2017-03-30T01:46:04.591Z,20.9
2017-03-30T01:48:05.310Z,20.9
2017-03-30T01:50:05.310Z,20.9
2017-03-30T01:52:10.219Z,20.9
2017-03-30T01:54:04.937Z,20.9
2017-03-30T01:56:04.951Z,20.9
2017-03-30T01:58:05.260Z,20.9
2017-03-30T02:00:04.961Z,20.9
2017-03-30T02:02:04.884Z,20.9
2017-03-30T02:04:07.624Z,20.9
2017-03-30T02:06:05.351Z,20.9
2017-03-30T02:08:05.387Z,20.9
2017-03-30T02:10:05.073Z,20.9
2017-03-30T02:12:07.952Z,20.9
2017-03-30T02:14:12.548Z,20.9
2017-03-30T02:16:07.787Z,20.9
2017-03-30T02:18:04.671Z,20.8
2017-03-30T02:20:05.611Z,20.9
2017-03-30T02:22:05.311Z,20.9
2017-03-30T02:24:05.827Z,20.9
2017-03-30T02:26:08.272Z,20.8
2017-03-30T02:28:04.941Z,20.9
2017-03-30T02:30:04.647Z,20.9
2017-03-30T02:32:05.676Z,20.9
2017-03-30T02:34:04.916Z,20.9
2017-03-30T02:36:04.650Z,20.9
2017-03-30T02:38:05.201Z,20.8
2017-03-30T02:40:07.719Z,20.9
2017-03-30T02:42:07.987Z,20.8
2017-03-30T02:44:05.029Z,20.8
2017-03-30T02:46:04.736Z,20.8
2017-03-30T02:48:05.429Z,20.9
2017-03-30T02:50:05.463Z,20.9
2017-03-30T02:52:05.171Z,20.9
2017-03-30T02:54:04.886Z,20.9
2017-03-30T02:56:05.953Z,20.9
2017-03-30T02:58:04.679Z,20.8
2017-03-30T03:00:04.929Z,20.8
2017-03-30T03:02:04.944Z,20.8
2017-03-30T03:04:04.631Z,20.8
2017-03-30T03:06:05.383Z,20.8
2017-03-30T03:08:05.222Z,20.8
2017-03-30T03:10:04.919Z,20.8
2017-03-30T03:12:04.808Z,20.8
2017-03-30T03:14:05.840Z,20.8
2017-03-30T03:16:05.573Z,20.8
2017-03-30T03:18:05.501Z,20.8
2017-03-30T03:20:05.355Z,20.8
2017-03-30T03:22:05.002Z,20.8
2017-03-30T03:24:04.779Z,20.8
2017-03-30T03:26:05.141Z,20.8
2017-03-30T03:28:15.263Z,20.8
2017-03-30T03:30:05.510Z,20.8
2017-03-30T03:32:13.162Z,20.8
2017-03-30T03:34:04.878Z,20.8
2017-03-30T03:36:05.582Z,20.8
2017-03-30T03:38:05.668Z,20.8
2017-03-30T03:40:05.348Z,20.8
2017-03-30T03:42:05.088Z,20.8
2017-03-30T03:44:05.124Z,20.8
2017-03-30T03:46:04.921Z,20.8
2017-03-30T03:48:05.245Z,20.8
2017-03-30T03:50:05.247Z,20.8
2017-03-30T03:52:04.926Z,20.8
2017-03-30T03:54:05.645Z,20.8
2017-03-30T03:56:08.281Z,20.9
2017-03-30T03:58:04.961Z,20.8
2017-03-30T04:00:05.037Z,20.8
2017-03-30T04:02:05.093Z,20.8
2017-03-30T04:04:07.813Z,20.8
2017-03-30T04:06:05.484Z,20.8
2017-03-30T04:08:04.847Z,20.8
2017-03-30T04:10:08.056Z,20.8
2017-03-30T04:12:04.771Z,20.8
2017-03-30T04:14:05.620Z,20.8
2017-03-30T04:16:05.683Z,20.8
2017-03-30T04:18:05.597Z,20.8
2017-03-30T04:20:05.659Z,20.8
2017-03-30T04:22:05.511Z,20.8
2017-03-30T04:24:05.201Z,20.9
2017-03-30T04:26:05.093Z,20.9
2017-03-30T04:28:07.863Z,20.9
2017-03-30T04:30:05.540Z,20.9
2017-03-30T04:32:05.506Z,20.9
2017-03-30T04:34:12.172Z,21
2017-03-30T04:36:08.438Z,21
2017-03-30T04:38:05.727Z,20.9
2017-03-30T04:40:07.434Z,21
2017-03-30T04:42:04.673Z,20.9
2017-03-30T04:44:05.567Z,21
2017-03-30T04:46:05.324Z,21
2017-03-30T04:48:07.870Z,21
2017-03-30T04:50:10.400Z,20.9
2017-03-30T04:52:04.621Z,20.9
2017-03-30T04:54:04.915Z,20.9
2017-03-30T04:56:05.858Z,20.9
2017-03-30T04:58:08.077Z,20.9
2017-03-30T05:00:07.340Z,20.9
2017-03-30T05:02:05.299Z,20.9
2017-03-30T05:04:07.700Z,20.9
2017-03-30T05:06:05.385Z,20.9
2017-03-30T05:08:07.878Z,20.9
2017-03-30T05:10:05.572Z,20.9
2017-03-30T05:12:10.538Z,20.9
2017-03-30T05:14:07.145Z,20.9
2017-03-30T05:16:06.328Z,20.9
2017-03-30T05:18:05.183Z,20.9
2017-03-30T05:20:05.211Z,20.9
2017-03-30T05:22:04.887Z,20.8
2017-03-30T05:24:05.633Z,20.9
2017-03-30T05:26:08.712Z,20.9
2017-03-30T05:28:05.406Z,20.9
2017-03-30T05:30:05.132Z,20.9
2017-03-30T05:32:05.150Z,20.9
2017-03-30T05:34:07.451Z,20.9
2017-03-30T05:36:05.481Z,20.8
2017-03-30T05:38:05.301Z,20.8
2017-03-30T05:40:05.151Z,20.8
2017-03-30T05:42:07.391Z,20.8
2017-03-30T05:44:05.571Z,20.9
2017-03-30T05:46:04.834Z,20.8
2017-03-30T05:48:05.545Z,20.8
2017-03-30T05:50:04.975Z,20.8
2017-03-30T05:52:04.853Z,20.8
2017-03-30T05:54:05.625Z,20.8
2017-03-30T05:56:07.734Z,20.8
2017-03-30T05:58:05.444Z,20.8
2017-03-30T06:00:05.180Z,20.8
2017-03-30T06:02:08.154Z,20.8
2017-03-30T06:04:04.867Z,20.8
2017-03-30T06:06:05.551Z,20.9
2017-03-30T06:08:05.594Z,20.9
2017-03-30T06:10:05.327Z,20.9
2017-03-30T06:12:12.646Z,20.8
2017-03-30T06:14:05.533Z,20.9
2017-03-30T06:16:05.229Z,20.9
2017-03-30T06:18:05.168Z,20.9
2017-03-30T06:20:07.684Z,20.8
2017-03-30T06:22:04.955Z,20.8
2017-03-30T06:24:05.882Z,20.8
2017-03-30T06:26:05.739Z,20.8
2017-03-30T06:28:05.440Z,20.8
2017-03-30T06:30:05.211Z,20.8
2017-03-30T06:32:05.554Z,20.9
2017-03-30T06:34:05.221Z,20.9
2017-03-30T06:36:06.341Z,20.9
2017-03-30T06:38:17.550Z,20.9
2017-03-30T06:40:05.653Z,20.9
2017-03-30T06:42:07.429Z,20.9
2017-03-30T06:44:05.594Z,20.9
2017-03-30T06:46:06.534Z,20.9
2017-03-30T06:48:05.033Z,20.9
2017-03-30T06:50:09.957Z,20.9
2017-03-30T06:52:04.670Z,20.9
2017-03-30T06:54:04.800Z,20.9
2017-03-30T06:56:05.879Z,20.8
2017-03-30T06:58:05.077Z,20.9
2017-03-30T07:00:12.832Z,20.9
2017-03-30T07:02:06.633Z,20.9
2017-03-30T07:04:05.295Z,20.9
2017-03-30T07:06:05.055Z,20.9
2017-03-30T07:08:05.120Z,20.9
2017-03-30T07:10:04.874Z,20.9
2017-03-30T07:12:05.404Z,20.9
2017-03-30T07:14:04.822Z,20.9
2017-03-30T07:16:05.032Z,20.9
2017-03-30T07:18:05.152Z,20.9
2017-03-30T07:20:04.997Z,20.9
2017-03-30T07:22:09.955Z,20.9
2017-03-30T07:24:04.717Z,20.9
2017-03-30T07:26:08.253Z,20.9
2017-03-30T07:28:07.685Z,20.9
2017-03-30T07:30:07.893Z,20.9
2017-03-30T07:32:05.884Z,20.9
2017-03-30T07:34:05.174Z,20.9
2017-03-30T07:36:04.903Z,20.9
2017-03-30T07:38:15.630Z,20.9
2017-03-30T07:40:05.117Z,20.9
2017-03-30T07:42:05.952Z,20.9
2017-03-30T07:44:07.457Z,21
2017-03-30T07:46:05.149Z,21
2017-03-30T07:48:07.408Z,21
2017-03-30T07:50:05.134Z,21
2017-03-30T07:52:04.905Z,21
2017-03-30T07:54:05.040Z,21
2017-03-30T07:56:05.021Z,21
2017-03-30T07:58:05.195Z,21
2017-03-30T08:00:05.184Z,21
2017-03-30T08:02:05.129Z,21
2017-03-30T08:04:04.815Z,21
2017-03-30T08:06:05.574Z,21
2017-03-30T08:08:10.616Z,21
2017-03-30T08:10:10.413Z,21.1
2017-03-30T08:12:05.089Z,21
2017-03-30T08:14:12.493Z,21.1
2017-03-30T08:16:05.400Z,21.1
2017-03-30T08:18:05.275Z,21.1
2017-03-30T08:20:07.735Z,21.1
2017-03-30T08:22:08.058Z,21.2
2017-03-30T08:24:04.738Z,21.1
2017-03-30T08:26:18.376Z,21.1
2017-03-30T08:28:05.078Z,21.1
2017-03-30T08:30:04.844Z,21.2
2017-03-30T08:32:10.319Z,21.2
2017-03-30T08:34:05.065Z,21.2
2017-03-30T08:36:04.760Z,21.2
2017-03-30T08:38:05.031Z,21.2
2017-03-30T08:40:05.233Z,21.3
2017-03-30T08:42:07.426Z,21.3
2017-03-30T08:44:05.040Z,21.4
2017-03-30T08:46:04.792Z,21.3
2017-03-30T08:48:05.610Z,21.4
2017-03-30T08:50:05.465Z,21.4
2017-03-30T08:52:04.732Z,21.4
2017-03-30T08:54:07.153Z,21.4
2017-03-30T08:56:11.274Z,21.4
2017-03-30T08:59:09.762Z,21.4
2017-03-30T09:00:05.487Z,21.5
2017-03-30T09:02:05.335Z,21.5
2017-03-30T09:04:06.311Z,21.5
2017-03-30T09:06:07.681Z,21.5
2017-03-30T09:10:07.561Z,21.6
2017-03-30T09:12:04.779Z,21.6
2017-03-30T09:14:04.695Z,21.6
2017-03-30T09:16:05.505Z,21.6
2017-03-30T09:18:05.508Z,21.6
2017-03-30T09:20:05.632Z,21.7
2017-03-30T09:22:05.811Z,21.6
2017-03-30T09:24:05.486Z,21.6
2017-03-30T09:26:05.308Z,21.6
2017-03-30T09:28:10.964Z,21.7
2017-03-30T09:30:04.739Z,21.7
2017-03-30T09:32:05.438Z,21.7
2017-03-30T09:34:05.764Z,21.7
2017-03-30T09:36:05.659Z,21.7
2017-03-30T09:38:05.991Z,21.6
2017-03-30T09:40:04.851Z,21.6
2017-03-30T09:42:05.113Z,21.7
2017-03-30T09:44:07.380Z,21.6
2017-03-30T09:46:05.356Z,21.6
2017-03-30T09:48:05.038Z,21.7
2017-03-30T09:50:12.564Z,21.7
2017-03-30T09:52:10.935Z,21.7
2017-03-30T09:54:04.658Z,21.7
2017-03-30T09:56:12.938Z,21.7
2017-03-30T09:58:04.993Z,21.7
2017-03-30T10:00:04.725Z,21.7
2017-03-30T10:02:05.412Z,21.7
2017-03-30T10:04:05.561Z,21.7
2017-03-30T10:06:05.254Z,21.7
2017-03-30T10:08:07.756Z,21.7
2017-03-30T10:10:05.609Z,21.7
2017-03-30T10:12:05.025Z,21.7
2017-03-30T10:14:05.792Z,21.7
2017-03-30T10:16:05.650Z,21.7
2017-03-30T10:18:10.668Z,21.7
2017-03-30T10:20:05.415Z,21.7
2017-03-30T10:22:04.871Z,21.7
2017-03-30T10:24:05.870Z,21.7
2017-03-30T10:26:05.576Z,21.7
2017-03-30T10:28:05.557Z,21.7
2017-03-30T10:30:05.234Z,21.7
2017-03-30T10:32:05.216Z,21.7
2017-03-30T10:34:05.278Z,21.7
2017-03-30T10:36:04.968Z,21.7
2017-03-30T10:38:04.752Z,21.7
2017-03-30T10:40:05.836Z,21.7
2017-03-30T10:42:05.073Z,21.7
2017-03-30T10:44:04.755Z,21.7
2017-03-30T10:46:13.363Z,21.7
2017-03-30T10:48:07.844Z,21.7
2017-03-30T10:50:05.115Z,21.7
2017-03-30T10:52:05.173Z,21.7
2017-03-30T10:54:04.857Z,21.8
2017-03-30T10:56:05.584Z,21.8
2017-03-30T10:58:08.114Z,21.8
2017-03-30T11:00:04.850Z,21.8
2017-03-30T11:02:05.602Z,21.8
2017-03-30T11:04:05.471Z,21.8
2017-03-30T11:06:05.225Z,21.8
2017-03-30T11:08:04.964Z,21.8
2017-03-30T11:10:05.737Z,21.8
2017-03-30T11:12:05.728Z,21.8
2017-03-30T11:14:04.938Z,21.9
2017-03-30T11:16:04.964Z,21.8
2017-03-30T11:18:04.857Z,21.8
2017-03-30T11:20:08.062Z,21.8
2017-03-30T11:22:05.132Z,21.8
2017-03-30T11:24:07.393Z,21.8
2017-03-30T11:26:05.076Z,21.8
2017-03-30T11:28:05.111Z,21.8
2017-03-30T11:30:04.818Z,21.8
2017-03-30T11:32:08.073Z,21.8
2017-03-30T11:34:05.029Z,21.8
2017-03-30T11:36:04.758Z,21.8
2017-03-30T11:38:08.053Z,21.7
2017-03-30T11:40:05.134Z,21.8
2017-03-30T11:42:07.344Z,21.8
2017-03-30T11:44:10.266Z,21.7
2017-03-30T11:46:05.368Z,21.7
2017-03-30T11:48:05.145Z,21.7
2017-03-30T11:50:05.388Z,21.7
2017-03-30T11:52:05.497Z,21.7
2017-03-30T11:54:05.224Z,21.7
2017-03-30T11:56:04.999Z,21.7
2017-03-30T11:58:05.586Z,21.7
2017-03-30T12:00:05.053Z,21.7
2017-03-30T12:02:07.287Z,21.8
2017-03-30T12:04:05.341Z,21.8
2017-03-30T12:06:05.038Z,21.7
2017-03-30T12:08:04.678Z,21.8
2017-03-30T12:10:04.909Z,21.7
2017-03-30T12:12:07.216Z,21.7
2017-03-30T12:14:05.064Z,21.7
2017-03-30T12:16:05.184Z,21.7
2017-03-30T12:18:05.098Z,21.8
2017-03-30T12:20:04.837Z,21.8
2017-03-30T12:22:05.915Z,21.8
2017-03-30T12:24:04.811Z,21.8
2017-03-30T12:26:05.882Z,21.8
2017-03-30T12:28:05.046Z,21.8
2017-03-30T12:30:04.837Z,21.8
2017-03-30T12:32:06.380Z,21.8
2017-03-30T12:34:05.196Z,21.8
2017-03-30T12:36:07.419Z,21.7
2017-03-30T12:38:05.103Z,21.8
2017-03-30T12:40:05.372Z,21.8
2017-03-30T12:42:05.564Z,21.7
2017-03-30T12:44:04.852Z,21.8
2017-03-30T12:46:08.355Z,21.7
2017-03-30T12:48:12.849Z,21.7
2017-03-30T12:50:04.664Z,21.7
2017-03-30T12:52:08.063Z,21.7
2017-03-30T12:54:05.809Z,21.7
2017-03-30T12:56:07.915Z,21.7
2017-03-30T12:58:07.453Z,21.7
2017-03-30T13:00:04.877Z,21.7
2017-03-30T13:02:04.796Z,21.7
2017-03-30T13:04:10.936Z,21.7
2017-03-30T13:06:09.779Z,21.7
2017-03-30T13:08:08.010Z,21.7
2017-03-30T13:10:07.556Z,21.7
2017-03-30T13:12:10.333Z,21.7
2017-03-30T13:14:05.571Z,21.7
2017-03-30T13:16:05.548Z,21.7
2017-03-30T13:18:04.981Z,21.6
2017-03-30T13:20:04.884Z,21.7
2017-03-30T13:22:08.538Z,21.7
2017-03-30T13:24:04.802Z,21.6
2017-03-30T13:26:05.618Z,21.7
2017-03-30T13:28:05.473Z,21.6
2017-03-30T13:30:05.215Z,21.6
2017-03-30T13:32:05.440Z,21.6
2017-03-30T13:34:05.002Z,21.7
2017-03-30T13:36:07.571Z,21.7
2017-03-30T13:38:05.295Z,21.6
2017-03-30T13:40:05.280Z,21.6
2017-03-30T13:42:05.001Z,21.7
2017-03-30T13:44:05.236Z,21.6
2017-03-30T13:46:05.269Z,21.6
2017-03-30T13:48:10.038Z,21.6
2017-03-30T13:50:04.781Z,21.6
2017-03-30T13:52:05.333Z,21.7
2017-03-30T13:54:05.043Z,21.6
2017-03-30T13:56:04.710Z,21.7
2017-03-30T13:58:05.228Z,21.7
2017-03-30T14:00:10.001Z,21.6
2017-03-30T14:02:04.689Z,21.7
2017-03-30T14:04:05.632Z,21.7
2017-03-30T14:06:07.891Z,21.7
2017-03-30T14:08:05.827Z,21.7
2017-03-30T14:10:11.589Z,21.7
2017-03-30T14:12:07.865Z,21.6
2017-03-30T14:14:05.600Z,21.7
2017-03-30T14:16:08.091Z,21.6
2017-03-30T14:18:04.966Z,21.7
2017-03-30T14:20:07.191Z,21.7
2017-03-30T14:22:05.410Z,21.6
2017-03-30T14:24:10.124Z,21.7
2017-03-30T14:26:04.815Z,21.7
2017-03-30T14:28:05.332Z,21.7
2017-03-30T14:30:07.869Z,21.6
2017-03-30T14:32:05.541Z,21.7
2017-03-30T14:34:05.144Z,21.7
2017-03-30T14:36:04.812Z,21.6
2017-03-30T14:38:05.507Z,21.7
2017-03-30T14:40:05.603Z,21.6
2017-03-30T14:42:05.286Z,21.7
2017-03-30T14:44:05.561Z,21.6
2017-03-30T14:46:05.599Z,21.7
2017-03-30T14:48:05.263Z,21.7
2017-03-30T14:50:05.167Z,21.7
2017-03-30T14:52:05.160Z,21.7
2017-03-30T14:54:07.404Z,21.6
2017-03-30T14:56:05.455Z,21.7
2017-03-30T14:58:05.277Z,21.6
2017-03-30T15:00:08.039Z,21.7
2017-03-30T15:02:07.350Z,21.7
2017-03-30T15:04:05.449Z,21.7
2017-03-30T15:06:07.630Z,21.6
2017-03-30T15:08:05.331Z,21.6
2017-03-30T15:10:05.338Z,21.7
2017-03-30T15:12:05.284Z,21.7
2017-03-30T15:14:12.626Z,21.7
2017-03-30T15:16:05.657Z,21.7
2017-03-30T15:18:05.541Z,21.7
2017-03-30T15:20:05.263Z,21.7
2017-03-30T15:22:10.363Z,21.7
2017-03-30T15:24:05.041Z,21.7
2017-03-30T15:26:04.915Z,21.7
2017-03-30T15:28:07.460Z,21.7
2017-03-30T15:30:05.109Z,21.7
2017-03-30T15:32:04.841Z,21.7
2017-03-30T15:34:05.671Z,21.7
2017-03-30T15:36:07.947Z,21.8
2017-03-30T15:38:07.167Z,21.7
2017-03-30T15:40:05.200Z,21.7
2017-03-30T15:42:04.948Z,21.7
2017-03-30T15:44:07.528Z,21.8
2017-03-30T15:46:10.251Z,21.7
2017-03-30T15:48:05.049Z,21.8
2017-03-30T15:50:05.291Z,21.8
2017-03-30T15:52:12.856Z,21.8
2017-03-30T15:54:05.489Z,21.8
2017-03-30T15:56:05.165Z,21.8
2017-03-30T15:58:05.482Z,21.8
2017-03-30T16:00:07.891Z,21.8
2017-03-30T16:02:05.122Z,21.8
2017-03-30T16:04:05.773Z,21.8
2017-03-30T16:06:05.509Z,21.8
2017-03-30T16:08:05.181Z,21.8
2017-03-30T16:10:05.204Z,21.8
2017-03-30T16:12:04.864Z,21.8
2017-03-30T16:14:05.598Z,21.8
2017-03-30T16:16:08.302Z,21.8
2017-03-30T16:18:07.717Z,21.8
2017-03-30T16:20:05.401Z,21.8
2017-03-30T16:22:05.470Z,21.8
2017-03-30T16:24:05.433Z,21.8
2017-03-30T16:26:05.356Z,21.8
2017-03-30T16:28:09.012Z,21.8
2017-03-30T16:30:04.705Z,21.8
2017-03-30T16:32:08.225Z,21.8
2017-03-30T16:34:05.258Z,21.8
2017-03-30T16:36:05.665Z,21.8
2017-03-30T16:38:05.393Z,21.8
2017-03-30T16:40:05.386Z,21.8
2017-03-30T16:42:04.737Z,21.8
2017-03-30T16:44:05.477Z,21.8
2017-03-30T16:46:05.268Z,21.8
2017-03-30T16:48:07.926Z,21.8
2017-03-30T16:50:05.583Z,21.8
2017-03-30T16:52:05.395Z,21.8
2017-03-30T16:54:05.114Z,21.8
2017-03-30T16:56:04.861Z,21.8
2017-03-30T16:58:05.947Z,21.8
2017-03-30T17:00:05.275Z,21.8
2017-03-30T17:02:05.064Z,21.8
2017-03-30T17:04:05.117Z,21.8
2017-03-30T17:06:04.811Z,21.8
2017-03-30T17:08:05.495Z,21.8
2017-03-30T17:10:05.544Z,21.8
2017-03-30T17:12:05.309Z,21.8
2017-03-30T17:14:07.779Z,21.8
2017-03-30T17:16:05.638Z,21.7
2017-03-30T17:18:05.517Z,21.7
2017-03-30T17:20:05.531Z,21.7
2017-03-30T17:22:08.080Z,21.8
2017-03-30T17:24:05.368Z,21.8
2017-03-30T17:26:05.030Z,21.8
2017-03-30T17:28:04.914Z,21.8
2017-03-30T17:30:07.981Z,21.7
2017-03-30T17:32:07.204Z,21.7
2017-03-30T17:34:05.007Z,21.7
2017-03-30T17:36:05.001Z,21.7
2017-03-30T17:38:07.268Z,21.7
2017-03-30T17:40:05.403Z,21.7
2017-03-30T17:42:07.170Z,21.7
2017-03-30T17:44:12.685Z,21.7
2017-03-30T17:46:04.797Z,21.7
2017-03-30T17:48:05.525Z,21.7
2017-03-30T17:50:07.444Z,21.7
2017-03-30T17:52:05.489Z,21.7
2017-03-30T17:54:05.172Z,21.7
2017-03-30T17:56:04.967Z,21.7
2017-03-30T17:58:05.461Z,21.7
2017-03-30T18:00:05.177Z,21.7
2017-03-30T18:02:04.895Z,21.7
2017-03-30T18:04:05.077Z,21.7
2017-03-30T18:06:04.831Z,21.7
2017-03-30T18:08:10.927Z,21.6
2017-03-30T18:10:05.972Z,21.6
2017-03-30T18:12:04.752Z,21.6
2017-03-30T18:14:05.520Z,21.6
2017-03-30T18:16:05.385Z,21.7
2017-03-30T18:18:05.312Z,21.7
2017-03-30T18:20:05.020Z,21.7
2017-03-30T18:22:05.494Z,21.6
2017-03-30T18:24:05.575Z,21.6
2017-03-30T18:26:05.363Z,21.6
2017-03-30T18:28:12.926Z,21.6
2017-03-30T18:30:05.603Z,21.6
2017-03-30T18:32:10.397Z,21.6
2017-03-30T18:34:05.680Z,21.6
2017-03-30T18:36:05.386Z,21.6
2017-03-30T18:38:05.096Z,21.6
2017-03-30T18:40:05.078Z,21.6
2017-03-30T18:42:07.356Z,21.6
2017-03-30T18:44:07.558Z,21.6
2017-03-30T18:46:05.532Z,21.6
2017-03-30T18:48:05.251Z,21.6
2017-03-30T18:50:05.000Z,21.6
2017-03-30T18:52:04.978Z,21.6
2017-03-30T18:54:09.758Z,21.6
2017-03-30T18:56:05.753Z,21.6
2017-03-30T18:58:05.523Z,21.6
2017-03-30T19:00:04.979Z,21.6
2017-03-30T19:02:12.279Z,21.6
2017-03-30T19:04:07.496Z,21.5
2017-03-30T19:06:05.616Z,21.6
2017-03-30T19:08:05.290Z,21.6
2017-03-30T19:10:04.980Z,21.6
2017-03-30T19:12:05.093Z,21.5
2017-03-30T19:14:04.837Z,21.5
2017-03-30T19:16:04.609Z,21.6
2017-03-30T19:18:10.682Z,21.6
2017-03-30T19:20:05.422Z,21.6
2017-03-30T19:22:04.634Z,21.5
2017-03-30T19:24:05.155Z,21.6
2017-03-30T19:26:04.882Z,21.6
2017-03-30T19:28:05.990Z,21.5
2017-03-30T19:30:04.973Z,21.5
2017-03-30T19:32:04.660Z,21.5
2017-03-30T19:34:05.445Z,21.5
2017-03-30T19:36:05.364Z,21.5
2017-03-30T19:38:05.137Z,21.5
2017-03-30T19:40:04.858Z,21.5
2017-03-30T19:42:05.710Z,21.5
2017-03-30T19:44:05.314Z,21.5
2017-03-30T19:46:04.646Z,21.5
2017-03-30T19:48:05.534Z,21.5
2017-03-30T19:50:07.987Z,21.5
2017-03-30T19:52:04.882Z,21.5
2017-03-30T19:54:05.883Z,21.5
2017-03-30T19:56:05.586Z,21.5
2017-03-30T19:58:07.890Z,21.5
2017-03-30T20:00:05.878Z,21.5
2017-03-30T20:02:05.634Z,21.5
2017-03-30T20:04:09.984Z,21.5
2017-03-30T20:06:07.675Z,21.5
2017-03-30T20:08:05.366Z,21.5
2017-03-30T20:10:05.656Z,21.5
2017-03-30T20:12:05.513Z,21.5
2017-03-30T20:14:05.465Z,21.5
2017-03-30T20:16:05.542Z,21.5
2017-03-30T20:18:05.342Z,21.5
2017-03-30T20:20:07.833Z,21.5
2017-03-30T20:22:05.298Z,21.5
2017-03-30T20:24:05.320Z,21.5
2017-03-30T20:26:05.067Z,21.5
2017-03-30T20:28:04.799Z,21.5
2017-03-30T20:30:05.115Z,21.5
2017-03-30T20:32:05.410Z,21.5
2017-03-30T20:34:05.341Z,21.5
2017-03-30T20:36:05.397Z,21.5
2017-03-30T20:38:05.154Z,21.5
2017-03-30T20:40:07.484Z,21.5
2017-03-30T20:42:05.385Z,21.4
2017-03-30T20:44:04.766Z,21.5
2017-03-30T20:46:05.447Z,21.4
2017-03-30T20:48:08.218Z,21.4
2017-03-30T20:50:04.824Z,21.4
2017-03-30T20:52:05.614Z,21.5
2017-03-30T20:54:05.525Z,21.5
2017-03-30T20:56:05.417Z,21.5
2017-03-30T20:58:05.184Z,21.4
2017-03-30T21:00:05.261Z,21.5
2017-03-30T21:02:04.981Z,21.4
2017-03-30T21:04:05.048Z,21.5
2017-03-30T21:06:07.583Z,21.4
2017-03-30T21:08:05.439Z,21.4
2017-03-30T21:10:05.153Z,21.4
2017-03-30T21:12:05.153Z,21.5
2017-03-30T21:14:12.413Z,21.4
2017-03-30T21:16:05.125Z,21.4
2017-03-30T21:18:05.936Z,21.5
2017-03-30T21:20:04.779Z,21.5
2017-03-30T21:22:05.482Z,21.5
2017-03-30T21:24:05.523Z,21.4
2017-03-30T21:26:05.367Z,21.5
2017-03-30T21:28:07.635Z,21.4
2017-03-30T21:30:05.710Z,21.4
2017-03-30T21:32:05.418Z,21.4
2017-03-30T21:34:05.147Z,21.4
2017-03-30T21:36:05.246Z,21.5
2017-03-30T21:38:05.564Z,21.4
2017-03-30T21:40:07.437Z,21.5
2017-03-30T21:42:07.941Z,21.5
2017-03-30T21:44:04.646Z,21.4
2017-03-30T21:46:05.387Z,21.5
2017-03-30T21:48:05.709Z,21.4
2017-03-30T21:50:07.973Z,21.4
2017-03-30T21:52:05.088Z,21.4
2017-03-30T21:54:09.768Z,21.4
2017-03-30T21:56:05.497Z,21.5
2017-03-30T21:58:07.752Z,21.4
2017-03-30T22:00:05.602Z,21.4
2017-03-30T22:02:05.417Z,21.4
2017-03-30T22:04:05.159Z,21.4
2017-03-30T22:06:08.185Z,21.4
2017-03-30T22:08:05.033Z,21.4
2017-03-30T22:10:04.695Z,21.4
2017-03-30T22:12:05.674Z,21.4
2017-03-30T22:14:05.413Z,21.4
2017-03-30T22:16:07.638Z,21.4
2017-03-30T22:18:08.252Z,21.4
2017-03-30T22:20:05.544Z,21.4
2017-03-30T22:22:05.484Z,21.4
2017-03-30T22:24:15.522Z,21.4
2017-03-30T22:26:05.233Z,21.4
2017-03-30T22:28:25.158Z,21.4
2017-03-30T22:30:07.719Z,21.4
2017-03-30T22:32:05.416Z,21.4
2017-03-30T22:34:05.166Z,21.4
2017-03-30T22:36:07.722Z,21.4
2017-03-30T22:38:07.979Z,21.4
2017-03-30T22:40:05.092Z,21.4
2017-03-30T22:42:05.686Z,21.4
2017-03-30T22:44:05.412Z,21.4
2017-03-30T22:46:07.700Z,21.4
2017-03-30T22:48:05.555Z,21.4
2017-03-30T22:50:07.319Z,21.4
2017-03-30T22:52:05.068Z,21.4
2017-03-30T22:54:05.104Z,21.4
2017-03-30T22:56:04.984Z,21.4
2017-03-30T22:58:12.267Z,21.4
2017-03-30T23:00:16.766Z,21.4
2017-03-30T23:02:07.977Z,21.4
2017-03-30T23:04:04.748Z,21.4
2017-03-30T23:06:09.169Z,21.4
2017-03-30T23:08:04.866Z,21.4
2017-03-30T23:10:05.577Z,21.4
2017-03-30T23:12:05.662Z,21.4
2017-03-30T23:14:07.978Z,21.4
2017-03-30T23:16:07.795Z,21.4
2017-03-30T23:18:05.129Z,21.4
2017-03-30T23:20:07.902Z,21.4
2017-03-30T23:22:07.226Z,21.4
2017-03-30T23:24:05.076Z,21.4
2017-03-30T23:26:09.878Z,21.4
2017-03-30T23:28:05.930Z,21.4
2017-03-30T23:30:04.923Z,21.4
2017-03-30T23:32:04.709Z,21.4
2017-03-30T23:34:05.534Z,21.4
2017-03-30T23:36:05.366Z,21.4
2017-03-30T23:38:05.249Z,21.4
2017-03-30T23:40:07.879Z,21.4
2017-03-30T23:42:04.982Z,21.4
2017-03-30T23:44:05.040Z,21.4
2017-03-30T23:46:04.719Z,21.4
2017-03-30T23:48:08.089Z,21.4
2017-03-30T23:50:04.808Z,21.4
2017-03-30T23:52:05.538Z,21.4
2017-03-30T23:54:04.997Z,21.4
2017-03-30T23:56:04.681Z,21.4
2017-03-30T23:58:05.346Z,21.4
